Time;durP1;ratioP1;P1;durP2;ratioP2;P2;SDS_P1;SDS_P2;PMS_P1;PMS_P2;Temp;Humidity;BMP_temperature;BMP_pressure;BME280_temperature;BME280_humidity;BME280_pressure;Samples;Min_cycle;Max_cycle;Signal;HPM_P1;HPM_P2
2023/04/07 02:37:24;;;;;;;21.90;20.47;;;7.90;99.90;;;;;;5937918;23;20489;-74
2023/04/07 02:39:52;;;;;;;21.93;20.53;;;7.90;99.90;;;;;;4869086;29;20483;-74
2023/04/07 02:42:19;;;;;;;21.37;19.70;;;7.90;99.90;;;;;;4876233;29;20460;-73
2023/04/07 02:44:46;;;;;;;21.80;20.10;;;7.90;99.90;;;;;;4874261;29;20500;-74
2023/04/07 02:47:13;;;;;;;20.43;19.10;;;7.90;99.90;;;;;;4876348;29;20456;-74
2023/04/07 02:49:39;;;;;;;20.87;19.17;;;8.00;99.90;;;;;;4876266;29;20459;-74
2023/04/07 02:52:06;;;;;;;22.50;20.97;;;8.00;99.90;;;;;;4876159;29;20456;-74
2023/04/07 02:54:33;;;;;;;26.27;24.37;;;8.00;99.90;;;;;;4876072;29;20452;-72
2023/04/07 02:57:01;;;;;;;25.13;23.37;;;7.90;99.90;;;;;;4876305;29;20491;-71
2023/04/07 02:59:28;;;;;;;29.13;27.13;;;7.80;99.90;;;;;;4876275;29;21028;-71
2023/04/07 03:01:54;;;;;;;30.00;27.90;;;7.80;99.90;;;;;;4874354;29;20460;-71
2023/04/07 03:04:21;;;;;;;31.87;29.80;;;7.70;99.90;;;;;;4893402;29;20490;-72
2023/04/07 03:06:48;;;;;;;30.00;27.93;;;7.70;99.90;;;;;;4894635;29;20470;-72
2023/04/07 03:09:15;;;;;;;30.53;28.53;;;7.60;99.90;;;;;;4894682;29;20968;-73
2023/04/07 03:11:42;;;;;;;31.67;29.30;;;7.60;99.90;;;;;;4897784;29;20455;-73
2023/04/07 03:14:10;;;;;;;30.93;28.87;;;7.60;99.90;;;;;;4898572;29;20555;-72
2023/04/07 03:16:36;;;;;;;30.67;28.67;;;7.50;99.90;;;;;;4898038;29;20455;-72
2023/04/07 03:19:03;;;;;;;29.73;27.80;;;7.50;99.90;;;;;;4897924;29;20957;-73
2023/04/07 03:21:30;;;;;;;28.50;26.60;;;7.50;99.90;;;;;;4898097;29;20474;-72
2023/04/07 03:23:57;;;;;;;30.40;28.13;;;7.50;99.90;;;;;;4897870;29;20518;-73
2023/04/07 03:26:24;;;;;;;32.20;30.00;;;7.50;99.90;;;;;;4898118;29;20459;-74
2023/04/07 03:28:50;;;;;;;28.63;26.43;;;7.50;99.90;;;;;;4897879;29;20873;-73
2023/04/07 03:31:19;;;;;;;29.60;27.53;;;7.50;99.90;;;;;;4897766;29;20580;-73
2023/04/07 03:33:45;;;;;;;30.20;28.10;;;7.50;99.90;;;;;;4897894;29;20463;-73
2023/04/07 03:36:12;;;;;;;29.00;26.90;;;7.50;99.90;;;;;;4888831;29;20484;-73
2023/04/07 03:38:39;;;;;;;29.03;27.13;;;7.50;99.90;;;;;;4878644;29;20491;-76
2023/04/07 03:41:06;;;;;;;26.43;24.40;;;7.50;99.90;;;;;;4878965;29;20462;-75
2023/04/07 03:43:32;;;;;;;25.97;24.20;;;7.60;99.90;;;;;;4878708;29;20499;-75
2023/04/07 03:45:59;;;;;;;24.70;23.00;;;7.60;99.90;;;;;;4879063;29;20461;-72
2023/04/07 03:48:27;;;;;;;24.17;22.53;;;7.60;99.90;;;;;;4878825;29;20946;-75
2023/04/07 03:50:54;;;;;;;25.27;23.57;;;7.70;99.90;;;;;;4878792;29;20460;-76
2023/04/07 03:53:21;;;;;;;22.30;20.60;;;7.70;99.90;;;;;;4878652;29;20475;-75
2023/04/07 03:55:47;;;;;;;23.93;22.03;;;7.70;99.90;;;;;;4878666;29;20462;-73
2023/04/07 03:58:14;;;;;;;22.10;20.23;;;7.80;99.90;;;;;;4878929;29;20946;-73
2023/04/07 04:00:41;;;;;;;22.77;20.90;;;7.80;99.90;;;;;;4878638;29;20460;-73
2023/04/07 04:03:08;;;;;;;21.97;20.37;;;7.80;99.90;;;;;;4878406;29;20463;-74
2023/04/07 04:05:36;;;;;;;21.27;19.37;;;7.90;99.90;;;;;;4878300;29;21145;-74
2023/04/07 04:08:03;;;;;;;21.07;19.47;;;7.90;99.90;;;;;;4878326;29;20467;-74
2023/04/07 04:10:30;;;;;;;22.93;21.40;;;8.00;99.90;;;;;;4878618;29;20823;-73
2023/04/07 04:12:59;;;;;;;21.63;20.07;;;8.00;99.90;;;;;;4878456;29;20460;-74
2023/04/07 04:15:26;;;;;;;24.50;22.60;;;8.10;99.90;;;;;;4878420;29;20496;-72
2023/04/07 04:17:52;;;;;;;23.63;21.97;;;8.10;99.90;;;;;;4878060;29;20486;-72
2023/04/07 04:20:21;;;;;;;22.87;21.07;;;8.10;99.90;;;;;;4878106;29;20456;-74
2023/04/07 04:22:49;;;;;;;23.43;21.27;;;8.10;99.90;;;;;;4877654;29;20535;-73
2023/04/07 04:25:16;;;;;;;26.17;24.07;;;8.10;99.90;;;;;;4878267;29;20859;-73
2023/04/07 04:27:43;;;;;;;23.57;21.90;;;8.10;99.90;;;;;;4878403;29;20467;-73
2023/04/07 04:30:10;;;;;;;23.27;21.53;;;8.20;99.90;;;;;;4878354;29;20460;-73
2023/04/07 04:32:37;;;;;;;25.60;23.90;;;8.20;99.90;;;;;;4877945;29;20997;-73
2023/04/07 04:35:04;;;;;;;23.20;21.43;;;8.20;99.90;;;;;;4877776;29;20456;-72
2023/04/07 04:37:31;;;;;;;20.90;19.40;;;8.20;99.90;;;;;;4877832;29;20825;-72
2023/04/07 04:39:59;;;;;;;24.33;22.23;;;8.10;99.90;;;;;;4877861;29;20484;-73
2023/04/07 04:42:26;;;;;;;23.00;21.10;;;8.20;99.90;;;;;;4877792;29;20445;-74
2023/04/07 04:44:53;;;;;;;22.43;20.73;;;8.20;99.90;;;;;;4877660;29;20496;-72
2023/04/07 04:47:20;;;;;;;22.97;21.07;;;8.10;99.90;;;;;;4877793;29;20583;-73
2023/04/07 04:49:46;;;;;;;22.80;20.90;;;8.10;99.90;;;;;;4877619;29;20460;-73
2023/04/07 04:52:13;;;;;;;22.17;20.67;;;8.10;99.90;;;;;;4877910;29;20456;-74
2023/04/07 04:54:40;;;;;;;24.10;22.10;;;8.10;99.90;;;;;;4877703;29;20448;-73
2023/04/07 04:57:08;;;;;;;23.47;21.77;;;8.10;99.90;;;;;;4877490;29;20527;-72
2023/04/07 04:59:35;;;;;;;23.67;21.67;;;8.20;99.90;;;;;;4877329;29;20475;-75
2023/04/07 05:02:01;;;;;;;24.87;23.03;;;8.20;99.90;;;;;;4877331;29;20955;-75
2023/04/07 05:04:28;;;;;;;23.17;21.67;;;8.20;99.90;;;;;;4877436;29;20492;-74
2023/04/07 05:06:55;;;;;;;23.97;22.30;;;8.20;99.90;;;;;;4877288;29;20930;-74
2023/04/07 05:09:22;;;;;;;22.00;20.60;;;8.10;99.90;;;;;;4877094;29;20742;-75
2023/04/07 05:11:48;;;;;;;23.33;21.63;;;8.20;99.90;;;;;;4877097;29;20471;-74
2023/04/07 05:14:16;;;;;;;23.17;21.57;;;8.20;99.90;;;;;;4872207;29;20513;-75
2023/04/07 05:16:43;;;;;;;23.33;21.30;;;8.20;99.90;;;;;;4877475;29;20512;-75
2023/04/07 05:19:10;;;;;;;23.27;21.67;;;8.20;99.90;;;;;;4877017;29;20456;-75
2023/04/07 05:21:36;;;;;;;23.03;21.30;;;8.20;99.90;;;;;;4877259;29;20479;-76
2023/04/07 05:24:03;;;;;;;25.23;22.83;;;8.20;99.90;;;;;;4876783;29;20619;-75
2023/04/07 05:26:30;;;;;;;24.03;22.27;;;8.20;99.90;;;;;;4877260;29;20467;-75
2023/04/07 05:28:57;;;;;;;21.70;20.00;;;8.10;99.90;;;;;;4877188;29;20463;-76
2023/04/07 05:31:25;;;;;;;24.13;22.33;;;8.10;99.90;;;;;;4876866;29;20515;-76
2023/04/07 05:33:51;;;;;;;23.20;21.60;;;8.20;99.90;;;;;;4875905;29;21010;-76
2023/04/07 05:36:18;;;;;;;23.33;21.60;;;8.40;99.90;;;;;;4876745;29;20480;-76
2023/04/07 05:38:45;;;;;;;24.80;22.70;;;8.50;99.90;;;;;;4876581;29;21284;-76
2023/04/07 05:41:12;;;;;;;23.83;21.80;;;8.60;99.90;;;;;;4876980;29;20457;-76
2023/04/07 05:43:39;;;;;;;22.87;21.17;;;8.60;99.90;;;;;;4876559;29;20472;-75
2023/04/07 05:46:05;;;;;;;23.87;22.13;;;8.60;99.90;;;;;;4876695;29;20460;-76
2023/04/07 05:48:34;;;;;;;24.70;22.83;;;8.60;99.90;;;;;;4876686;29;20453;-75
2023/04/07 05:51:01;;;;;;;23.63;21.97;;;8.50;99.90;;;;;;4876605;29;20539;-76
2023/04/07 05:53:27;;;;;;;23.80;22.10;;;8.50;99.90;;;;;;4876873;29;20460;-76
2023/04/07 05:55:54;;;;;;;23.93;22.03;;;8.50;99.90;;;;;;4876465;29;20459;-76
2023/04/07 05:58:21;;;;;;;22.53;20.83;;;8.50;99.90;;;;;;4876480;29;20709;-77
2023/04/07 06:00:47;;;;;;;22.63;20.87;;;8.50;99.90;;;;;;4876378;29;20463;-75
2023/04/07 06:03:14;;;;;;;23.73;21.83;;;8.70;99.90;;;;;;4876474;29;20448;-76
2023/04/07 06:05:42;;;;;;;24.17;22.30;;;8.70;99.90;;;;;;4876405;29;20496;-75
2023/04/07 06:08:09;;;;;;;24.37;22.37;;;8.70;99.90;;;;;;4876227;29;20466;-76
2023/04/07 06:10:36;;;;;;;24.07;22.10;;;8.60;99.90;;;;;;4875819;29;20733;-76
2023/04/07 06:13:03;;;;;;;24.37;22.37;;;8.70;99.90;;;;;;4875743;29;20516;-76
2023/04/07 06:15:29;;;;;;;24.87;22.60;;;8.70;99.90;;;;;;4876068;29;20456;-77
2023/04/07 06:17:56;;;;;;;24.10;22.20;;;8.70;99.90;;;;;;4876402;29;20803;-77
2023/04/07 06:20:23;;;;;;;24.73;22.93;;;8.70;99.90;;;;;;4876258;29;20471;-77
2023/04/07 06:22:51;;;;;;;22.10;20.40;;;8.70;99.90;;;;;;4876026;29;20854;-77
2023/04/07 06:25:17;;;;;;;23.50;21.60;;;8.80;99.90;;;;;;4876000;29;20494;-77
2023/04/07 06:27:45;;;;;;;23.53;21.73;;;8.70;99.90;;;;;;4876150;29;20979;-77
2023/04/07 06:30:12;;;;;;;23.70;21.80;;;8.70;99.90;;;;;;4876380;29;20468;-76
2023/04/07 06:32:39;;;;;;;24.60;22.60;;;8.70;99.90;;;;;;4876006;29;20463;-76
2023/04/07 06:35:06;;;;;;;24.23;22.30;;;8.70;99.90;;;;;;4870752;29;20442;-78
2023/04/07 06:37:33;;;;;;;22.33;20.53;;;8.70;99.90;;;;;;4857608;29;20465;-82
2023/04/07 06:40:01;;;;;;;23.70;21.80;;;8.80;99.90;;;;;;4858463;29;20492;-80
2023/04/07 06:42:28;;;;;;;24.23;22.43;;;8.90;99.90;;;;;;4857877;29;20979;-77
2023/04/07 06:44:54;;;;;;;25.47;23.37;;;9.00;99.90;;;;;;4857182;29;20492;-78
2023/04/07 06:47:21;;;;;;;23.70;21.63;;;9.10;99.90;;;;;;4857493;29;20815;-79
2023/04/07 06:49:48;;;;;;;21.83;20.13;;;9.30;99.90;;;;;;4857322;29;20457;-79
2023/04/07 06:52:15;;;;;;;23.67;21.93;;;9.40;99.90;;;;;;4857305;29;20464;-80
2023/04/07 06:54:41;;;;;;;24.67;22.77;;;9.40;99.90;;;;;;4858023;29;20516;-81
2023/04/07 06:57:11;;;;;;;23.80;22.00;;;9.30;99.90;;;;;;4857662;29;20555;-80
2023/04/07 06:59:37;;;;;;;23.23;21.30;;;9.40;99.90;;;;;;4857258;29;20496;-82
2023/04/07 07:02:06;;;;;;;22.77;21.07;;;9.40;99.90;;;;;;4857450;29;20481;-80
2023/04/07 07:04:32;;;;;;;22.37;20.70;;;9.40;99.90;;;;;;4857069;29;20535;-80
2023/04/07 07:06:59;;;;;;;22.47;20.67;;;9.50;99.90;;;;;;4857499;29;20464;-80
2023/04/07 07:09:26;;;;;;;22.77;20.57;;;9.50;99.90;;;;;;4857511;29;20476;-81
2023/04/07 07:11:53;;;;;;;21.30;19.77;;;9.60;99.90;;;;;;4857805;29;20498;-80
2023/04/07 07:14:21;;;;;;;21.83;20.07;;;9.70;99.90;;;;;;4857601;29;20456;-81
2023/04/07 07:16:47;;;;;;;22.67;21.07;;;9.80;99.90;;;;;;4857327;29;20464;-82
2023/04/07 07:19:15;;;;;;;22.60;20.80;;;9.80;99.90;;;;;;4857703;29;20869;-83
2023/04/07 07:21:41;;;;;;;21.37;19.67;;;10.00;99.90;;;;;;4857485;29;20548;-83
2023/04/07 07:24:08;;;;;;;21.20;19.80;;;9.90;99.90;;;;;;4857284;29;20514;-81
2023/04/07 07:26:35;;;;;;;21.17;19.53;;;10.10;99.90;;;;;;4858050;29;20723;-82
2023/04/07 07:29:01;;;;;;;19.83;18.37;;;10.20;99.90;;;;;;4857700;29;20491;-81
2023/04/07 07:31:30;;;;;;;21.87;19.87;;;10.40;99.90;;;;;;4857805;29;20467;-82
2023/04/07 07:33:56;;;;;;;19.83;18.30;;;10.60;99.90;;;;;;4857567;29;20987;-85
2023/04/07 07:36:23;;;;;;;21.20;19.60;;;10.70;99.90;;;;;;4859348;29;20473;-89
2023/04/07 07:38:50;;;;;;;19.17;17.97;;;10.80;99.90;;;;;;4864165;29;20484;-90
2023/04/07 07:41:17;;;;;;;20.33;18.77;;;10.90;99.90;;;;;;4866655;29;20495;-90
2023/04/07 07:43:44;;;;;;;21.10;19.07;;;11.20;99.90;;;;;;4866853;29;20461;-92
2023/04/07 07:46:11;;;;;;;20.33;18.90;;;11.30;99.90;;;;;;4870198;29;20568;-89
2023/04/07 07:48:39;;;;;;;20.23;18.93;;;11.40;99.90;;;;;;4874672;29;20485;-91
2023/04/07 07:51:06;;;;;;;19.33;18.00;;;11.50;99.90;;;;;;4860852;29;20445;-85
2023/04/07 07:53:32;;;;;;;19.90;18.30;;;11.60;99.90;;;;;;4860830;29;20461;-91
2023/04/07 07:56:00;;;;;;;20.77;19.27;;;11.80;99.90;;;;;;4868596;29;20872;-90
2023/04/07 07:58:26;;;;;;;19.87;18.47;;;12.00;99.90;;;;;;4874367;29;20465;-94
2023/04/07 08:00:53;;;;;;;22.00;20.30;;;12.00;99.90;;;;;;4866192;29;20457;-88
2023/04/07 08:03:21;;;;;;;19.73;18.43;;;12.00;99.90;;;;;;4861977;29;20732;-86
2023/04/07 08:05:49;;;;;;;19.60;18.27;;;11.90;99.90;;;;;;4857456;29;20489;-85
2023/04/07 08:08:16;;;;;;;18.50;17.13;;;11.90;99.90;;;;;;4860297;29;20549;-90
2023/04/07 08:10:43;;;;;;;18.20;16.80;;;12.20;99.90;;;;;;4860467;29;20460;-83
2023/04/07 08:13:10;;;;;;;18.47;17.20;;;13.00;99.90;;;;;;4860210;29;20468;-84
2023/04/07 08:15:37;;;;;;;20.50;19.10;;;13.60;99.90;;;;;;4860096;29;20488;-80
2023/04/07 08:18:05;;;;;;;19.10;17.80;;;14.10;99.90;;;;;;4860027;29;20471;-85
2023/04/07 08:20:32;;;;;;;19.27;17.93;;;14.90;99.90;;;;;;4860130;29;20967;-81
2023/04/07 08:23:00;;;;;;;19.10;17.90;;;16.00;99.00;;;;;;4858698;29;20508;-82
2023/04/07 08:25:28;;;;;;;19.07;17.87;;;17.00;96.60;;;;;;4857750;29;20481;-82
2023/04/07 08:27:55;;;;;;;17.93;16.93;;;17.60;94.70;;;;;;4859401;29;20464;-82
2023/04/07 08:30:22;;;;;;;17.60;16.60;;;18.70;92.70;;;;;;4859433;29;20716;-81
2023/04/07 08:32:49;;;;;;;18.23;17.23;;;19.80;91.10;;;;;;4859176;29;20457;-79
2023/04/07 08:35:15;;;;;;;18.10;16.90;;;20.70;85.40;;;;;;4859322;29;20923;-80
2023/04/07 08:37:43;;;;;;;18.50;17.23;;;20.90;78.90;;;;;;4859734;29;20464;-81
2023/04/07 08:40:12;;;;;;;17.10;16.10;;;21.00;77.00;;;;;;4859002;29;20573;-81
2023/04/07 08:42:42;;;;;;;16.83;15.90;;;21.90;75.40;;;;;;4858947;29;21008;-81
2023/04/07 08:45:10;;;;;;;16.00;15.20;;;22.80;71.30;;;;;;4859136;29;20520;-80
2023/04/07 08:47:37;;;;;;;16.03;15.23;;;23.20;68.30;;;;;;4859018;29;21003;-81
2023/04/07 08:50:05;;;;;;;16.20;15.40;;;23.40;64.70;;;;;;4859199;29;20461;-81
2023/04/07 08:52:35;;;;;;;15.60;14.80;;;23.00;65.70;;;;;;4858839;29;20492;-81
2023/04/07 08:55:05;;;;;;;16.70;15.80;;;22.00;68.00;;;;;;4859416;29;20457;-81
2023/04/07 08:57:33;;;;;;;15.93;15.17;;;22.50;67.30;;;;;;4858954;29;20481;-81
2023/04/07 09:00:04;;;;;;;15.93;15.10;;;21.80;65.10;;;;;;4859147;29;20830;-81
2023/04/07 09:02:32;;;;;;;15.00;14.10;;;20.90;70.50;;;;;;4858844;29;20472;-82
2023/04/07 09:04:59;;;;;;;16.73;15.73;;;21.00;71.30;;;;;;4859185;29;21241;-81
2023/04/07 09:07:26;;;;;;;15.30;14.50;;;19.70;74.90;;;;;;4858557;29;20922;-83
2023/04/07 09:09:53;;;;;;;15.43;14.47;;;19.60;74.70;;;;;;4858608;29;20468;-82
2023/04/07 09:12:19;;;;;;;15.87;14.87;;;19.60;76.10;;;;;;4858758;29;20480;-81
2023/04/07 09:14:47;;;;;;;15.10;14.30;;;19.40;77.00;;;;;;4858682;29;20460;-81
2023/04/07 09:17:14;;;;;;;14.60;13.70;;;19.40;77.50;;;;;;4858995;29;20460;-81
2023/04/07 09:19:41;;;;;;;15.57;14.57;;;19.50;76.60;;;;;;4858750;29;20468;-82
2023/04/07 09:22:11;;;;;;;17.10;16.00;;;19.50;75.60;;;;;;4858506;29;20460;-82
2023/04/07 09:24:38;;;;;;;16.80;15.60;;;18.60;78.70;;;;;;4858086;29;20464;-82
2023/04/07 09:27:12;;;;;;;15.63;14.93;;;18.70;78.90;;;;;;4858140;29;20842;-81
2023/04/07 09:29:40;;;;;;;15.33;14.43;;;18.40;78.70;;;;;;4858290;29;20857;-82
2023/04/07 09:32:09;;;;;;;15.00;14.10;;;18.20;80.10;;;;;;4856606;29;20576;-80
2023/04/07 09:34:37;;;;;;;15.60;14.70;;;18.20;82.20;;;;;;4858115;29;20453;-81
2023/04/07 09:37:06;;;;;;;14.70;13.80;;;18.40;80.00;;;;;;4858345;29;20469;-82
2023/04/07 09:39:33;;;;;;;14.13;13.10;;;18.30;79.60;;;;;;4870510;29;20511;-81
2023/04/07 09:42:06;;;;;;;14.37;13.50;;;18.40;79.70;;;;;;4876678;29;20491;-80
2023/04/07 09:44:40;;;;;;;15.33;14.23;;;19.00;80.00;;;;;;4876277;29;20456;-80
2023/04/07 09:47:07;;;;;;;15.83;14.97;;;19.90;79.30;;;;;;4876344;29;20578;-82
2023/04/07 09:49:48;;;;;;;15.43;14.63;;;19.80;76.20;;;;;;4876463;29;20555;-82
2023/04/07 09:52:16;;;;;;;16.27;15.40;;;20.20;76.40;;;;;;4876394;29;20463;-84
2023/04/07 09:54:43;;;;;;;16.80;15.90;;;19.90;75.50;;;;;;4876930;29;20468;-83
2023/04/07 09:57:11;;;;;;;17.13;16.17;;;19.20;77.00;;;;;;4877162;29;20460;-83
2023/04/07 09:59:39;;;;;;;15.53;14.60;;;19.30;76.90;;;;;;4877016;29;20456;-85
2023/04/07 10:02:07;;;;;;;15.63;14.53;;;18.50;78.20;;;;;;4877505;29;20482;-84
2023/04/07 10:04:36;;;;;;;15.03;14.03;;;17.90;81.30;;;;;;4877026;29;20512;-83
2023/04/07 10:07:03;;;;;;;15.17;14.17;;;18.30;81.00;;;;;;4878953;29;20528;-84
2023/04/07 10:09:30;;;;;;;15.53;14.53;;;18.30;80.70;;;;;;4878277;29;20456;-85
2023/04/07 10:11:58;;;;;;;17.03;16.00;;;18.30;81.10;;;;;;4880776;29;20467;-85
2023/04/07 10:14:30;;;;;;;15.70;14.80;;;17.80;81.20;;;;;;4881688;29;20464;-84
2023/04/07 10:16:57;;;;;;;14.80;14.00;;;17.20;84.50;;;;;;4880619;29;20488;-84
2023/04/07 10:19:25;;;;;;;15.37;14.57;;;16.90;85.80;;;;;;4880090;29;20452;-84
2023/04/07 10:21:55;;;;;;;15.80;14.90;;;16.90;86.10;;;;;;4882587;29;20508;-85
2023/04/07 10:24:39;;;;;;;16.00;15.00;;;16.50;87.70;;;;;;4872146;29;20495;-86
2023/04/07 10:27:10;;;;;;;17.67;16.37;;;16.50;88.50;;;;;;4876418;29;20602;-85
2023/04/07 10:29:40;;;;;;;14.47;13.57;;;17.00;89.00;;;;;;4877057;29;20464;-84
2023/04/07 10:32:07;;;;;;;15.40;14.30;;;16.60;87.40;;;;;;4870703;29;20881;-85
2023/04/07 10:34:56;;;;;;;14.90;14.10;;;17.10;87.70;;;;;;4860285;29;20453;-84
2023/04/07 10:37:26;;;;;;;15.37;14.47;;;17.10;86.90;;;;;;4860680;29;20481;-85
2023/04/07 10:40:28;;;;;;;16.70;15.50;;;17.80;85.70;;;;;;4860638;29;20556;-87
2023/04/07 10:42:56;;;;;;;15.00;14.17;;;18.50;81.70;;;;;;4857922;29;20469;-85
2023/04/07 10:45:55;;;;;;;14.67;13.50;;;18.30;81.60;;;;;;4858016;29;20545;-85
2023/04/07 10:48:22;;;;;;;15.30;14.20;;;18.00;81.60;;;;;;4855190;29;20509;-85
2023/04/07 10:51:14;;;;;;;16.07;14.93;;;17.80;83.00;;;;;;4867952;29;20465;-85
2023/04/07 10:54:22;;;;;;;16.63;15.43;;;19.60;80.00;;;;;;4876384;29;20547;-85
2023/04/07 10:57:10;;;;;;;15.03;14.10;;;20.90;75.00;;;;;;4868888;29;20449;-85
2023/04/07 10:59:38;;;;;;;16.50;15.60;;;20.50;74.80;;;;;;4857457;29;20480;-84
2023/04/07 11:02:32;;;;;;;16.10;15.17;;;19.60;75.80;;;;;;4857142;29;20461;-84
2023/04/07 11:04:59;;;;;;;14.07;13.17;;;19.20;78.00;;;;;;4857618;29;20496;-83
2023/04/07 11:07:45;;;;;;;14.57;13.77;;;19.30;77.80;;;;;;4857326;29;20504;-85
2023/04/07 11:10:14;;;;;;;15.73;14.57;;;19.90;76.90;;;;;;4862159;29;20465;-86
2023/04/07 11:12:42;;;;;;;16.60;15.80;;;20.80;74.10;;;;;;4858148;29;20955;-84
2023/04/07 11:15:20;;;;;;;14.77;13.77;;;20.60;72.90;;;;;;4859040;29;20496;-85
2023/04/07 11:17:47;;;;;;;14.50;13.70;;;21.00;71.80;;;;;;4857844;29;20460;-85
2023/04/07 11:20:14;;;;;;;14.13;13.37;;;20.40;70.00;;;;;;4858546;29;20475;-85
2023/04/07 11:22:41;;;;;;;16.00;15.00;;;20.10;71.10;;;;;;4858114;29;20801;-84
2023/04/07 11:25:21;;;;;;;15.23;14.37;;;20.50;70.90;;;;;;4857692;29;20468;-84
2023/04/07 11:27:50;;;;;;;14.53;13.63;;;19.80;71.40;;;;;;4852518;29;20528;-82
2023/04/07 11:30:18;;;;;;;15.40;14.10;;;19.40;73.20;;;;;;4858450;29;20461;-83
2023/04/07 11:32:49;;;;;;;12.57;11.93;;;19.20;72.90;;;;;;4847864;29;20489;-84
2023/04/07 11:35:16;;;;;;;14.00;13.27;;;18.70;75.80;;;;;;4842888;29;20497;-84
2023/04/07 11:37:43;;;;;;;13.63;12.83;;;18.60;76.30;;;;;;4842643;29;20961;-83
2023/04/07 11:40:11;;;;;;;14.13;12.33;;;18.50;75.10;;;;;;4842317;29;20524;-83
2023/04/07 11:42:40;;;;;;;15.63;14.53;;;18.30;77.00;;;;;;4841864;29;20465;-83
2023/04/07 11:45:19;;;;;;;15.60;14.50;;;18.60;75.90;;;;;;4841633;29;20453;-83
2023/04/07 11:47:46;;;;;;;15.50;14.70;;;18.90;75.80;;;;;;4842202;29;20604;-84
2023/04/07 11:50:13;;;;;;;14.00;13.20;;;18.60;77.20;;;;;;4841802;29;20470;-84
2023/04/07 11:52:43;;;;;;;15.00;14.10;;;17.70;80.20;;;;;;4842242;29;20457;-83
2023/04/07 11:55:20;;;;;;;15.40;14.50;;;17.90;79.70;;;;;;4842283;29;20501;-82
2023/04/07 11:57:47;;;;;;;15.93;15.03;;;17.60;79.50;;;;;;4842056;29;20556;-82
2023/04/07 12:00:16;;;;;;;14.20;13.27;;;17.70;79.90;;;;;;4843759;29;20457;-83
2023/04/07 12:02:42;;;;;;;12.37;11.77;;;17.70;79.80;;;;;;4843021;29;20461;-83
2023/04/07 12:05:10;;;;;;;13.70;13.00;;;17.00;81.30;;;;;;4842147;29;20468;-82
2023/04/07 12:07:38;;;;;;;14.00;13.20;;;16.90;82.20;;;;;;4842182;29;20490;-82
2023/04/07 12:10:21;;;;;;;14.60;13.60;;;17.00;83.00;;;;;;4842001;29;20587;-84
2023/04/07 12:12:48;;;;;;;14.27;13.37;;;17.00;84.20;;;;;;4846889;29;20458;-81
2023/04/07 12:15:16;;;;;;;14.77;13.97;;;16.70;82.20;;;;;;4848856;29;21039;-82
2023/04/07 12:17:45;;;;;;;14.80;13.70;;;16.60;84.20;;;;;;4843115;29;20461;-82
2023/04/07 12:20:12;;;;;;;14.10;13.20;;;16.70;84.50;;;;;;4842201;29;20457;-85
2023/04/07 12:22:39;;;;;;;14.03;13.33;;;16.20;86.20;;;;;;4842154;29;20462;-83
2023/04/07 12:25:06;;;;;;;14.93;13.70;;;16.10;88.80;;;;;;4841725;29;20454;-83
2023/04/07 12:27:33;;;;;;;15.77;14.83;;;15.80;93.50;;;;;;4841509;29;20508;-83
2023/04/07 12:30:00;;;;;;;14.17;13.27;;;15.30;96.20;;;;;;4842313;29;20457;-81
2023/04/07 12:32:28;;;;;;;14.10;13.30;;;15.10;98.70;;;;;;4852337;29;20465;-83
2023/04/07 12:34:55;;;;;;;14.33;13.33;;;14.90;99.90;;;;;;4859994;29;20552;-81
2023/04/07 12:37:22;;;;;;;14.60;13.50;;;14.80;99.90;;;;;;4859992;29;20473;-83
2023/04/07 12:39:48;;;;;;;13.70;12.83;;;14.70;99.90;;;;;;4860027;29;20496;-82
2023/04/07 12:42:15;;;;;;;11.07;10.57;;;14.70;99.90;;;;;;4860135;29;20460;-81
2023/04/07 12:44:42;;;;;;;11.53;11.00;;;14.50;99.00;;;;;;4860231;29;20858;-81
2023/04/07 12:47:11;;;;;;;12.00;11.40;;;14.50;98.60;;;;;;4859436;29;20501;-81
2023/04/07 12:49:39;;;;;;;12.60;11.70;;;14.50;97.30;;;;;;4860413;29;20469;-82
2023/04/07 12:52:06;;;;;;;11.00;10.30;;;14.30;97.80;;;;;;4858982;29;20828;-83
2023/04/07 12:54:32;;;;;;;10.43;9.73;;;14.40;97.50;;;;;;4858795;29;20485;-81
2023/04/07 12:56:59;;;;;;;10.20;9.80;;;14.30;96.90;;;;;;4858773;29;20514;-80
2023/04/07 12:59:26;;;;;;;9.90;9.30;;;14.40;96.80;;;;;;4859520;29;20473;-81
2023/04/07 13:01:53;;;;;;;8.63;8.23;;;14.60;96.00;;;;;;4858672;29;20461;-81
2023/04/07 13:04:20;;;;;;;10.17;9.77;;;14.60;95.60;;;;;;4858926;29;20480;-80
2023/04/07 13:06:48;;;;;;;10.70;10.10;;;14.90;95.30;;;;;;4858638;29;20497;-80
2023/04/07 13:09:15;;;;;;;10.20;9.80;;;15.00;94.70;;;;;;4858959;29;20461;-81
2023/04/07 13:11:41;;;;;;;10.30;9.90;;;15.00;94.20;;;;;;4859021;29;20465;-80
2023/04/07 13:14:08;;;;;;;9.40;9.00;;;15.10;93.80;;;;;;4858812;29;20455;-81
2023/04/07 13:16:36;;;;;;;9.30;8.90;;;15.40;93.20;;;;;;4858237;29;20449;-81
2023/04/07 13:19:02;;;;;;;13.80;13.10;;;15.60;92.10;;;;;;4859164;29;20579;-81
2023/04/07 13:21:29;;;;;;;9.90;9.50;;;15.70;91.80;;;;;;4859346;29;20823;-82
2023/04/07 13:23:57;;;;;;;11.40;10.93;;;15.70;90.80;;;;;;4858878;29;20461;-82
2023/04/07 13:26:25;;;;;;;9.60;9.20;;;16.00;90.50;;;;;;4858979;29;20496;-81
2023/04/07 13:28:51;;;;;;;9.67;9.30;;;16.00;90.30;;;;;;4858967;29;20600;-81
2023/04/07 13:31:20;;;;;;;10.27;9.77;;;16.30;88.50;;;;;;4858320;29;20461;-81
2023/04/07 13:33:47;;;;;;;10.40;9.80;;;16.40;86.60;;;;;;4858537;29;20465;-80
2023/04/07 13:36:14;;;;;;;11.40;10.90;;;16.20;90.40;;;;;;4859119;29;20482;-80
2023/04/07 13:38:41;;;;;;;11.53;11.00;;;15.80;93.30;;;;;;4859375;29;20485;-80
2023/04/07 13:41:09;;;;;;;10.23;9.73;;;15.50;95.20;;;;;;4858642;29;20480;-81
2023/04/07 13:43:35;;;;;;;13.00;12.40;;;15.50;96.20;;;;;;4857862;29;20615;-82
2023/04/07 13:46:02;;;;;;;11.90;11.20;;;15.40;96.60;;;;;;4858196;29;20457;-80
2023/04/07 13:48:29;;;;;;;13.77;13.17;;;15.40;97.00;;;;;;4858259;29;20453;-80
2023/04/07 13:50:56;;;;;;;10.20;9.60;;;15.40;97.30;;;;;;4858762;29;20461;-81
2023/04/07 13:53:22;;;;;;;10.60;10.10;;;15.50;97.00;;;;;;4858319;29;20457;-81
2023/04/07 13:55:49;;;;;;;11.13;10.33;;;15.10;96.20;;;;;;4857863;29;20545;-80
2023/04/07 13:58:17;;;;;;;10.83;10.30;;;14.90;95.80;;;;;;4858392;29;20457;-81
2023/04/07 14:00:44;;;;;;;11.23;10.47;;;15.10;96.40;;;;;;4858665;29;20461;-80
2023/04/07 14:03:11;;;;;;;10.93;10.53;;;15.20;97.00;;;;;;4857727;29;20527;-80
2023/04/07 14:05:37;;;;;;;10.87;10.27;;;15.30;96.10;;;;;;4857988;29;20800;-80
2023/04/07 14:08:04;;;;;;;13.20;12.60;;;15.40;96.10;;;;;;4857362;29;20489;-80
2023/04/07 14:10:32;;;;;;;10.80;10.30;;;15.70;96.00;;;;;;4857273;29;20945;-81
2023/04/07 14:12:59;;;;;;;10.50;9.90;;;15.70;95.50;;;;;;4857628;29;20997;-80
2023/04/07 14:15:27;;;;;;;11.07;10.57;;;16.00;95.30;;;;;;4857934;29;20876;-81
2023/04/07 14:17:54;;;;;;;11.53;11.03;;;16.30;95.20;;;;;;4857674;29;20508;-82
2023/04/07 14:20:21;;;;;;;10.70;10.00;;;16.40;95.00;;;;;;4860254;29;20565;-82
2023/04/07 14:22:47;;;;;;;14.33;13.43;;;16.60;94.00;;;;;;4857832;29;20465;-81
2023/04/07 14:25:14;;;;;;;13.53;12.80;;;16.60;93.80;;;;;;4857930;29;20464;-81
2023/04/07 14:27:41;;;;;;;12.00;11.40;;;16.60;94.10;;;;;;4857321;29;20607;-82
2023/04/07 14:30:09;;;;;;;12.40;11.67;;;16.60;93.80;;;;;;4857393;29;20472;-79
2023/04/07 14:32:37;;;;;;;13.83;13.13;;;16.50;94.40;;;;;;4857389;29;20456;-81
2023/04/07 14:35:04;;;;;;;11.60;11.10;;;16.40;94.40;;;;;;4856922;29;20807;-79
2023/04/07 14:37:31;;;;;;;11.87;11.30;;;16.70;94.10;;;;;;4857289;29;20874;-80
2023/04/07 14:39:58;;;;;;;13.80;13.00;;;17.00;93.60;;;;;;4857332;29;20496;-80
2023/04/07 14:42:24;;;;;;;13.73;12.90;;;17.40;92.80;;;;;;4857362;29;20468;-80
2023/04/07 14:44:52;;;;;;;12.60;11.90;;;17.20;92.40;;;;;;4857221;29;20940;-80
2023/04/07 14:47:19;;;;;;;14.20;13.40;;;17.40;92.50;;;;;;4857151;29;20591;-81
2023/04/07 14:49:47;;;;;;;13.07;12.47;;;17.40;92.00;;;;;;4857552;29;20517;-80
2023/04/07 14:52:14;;;;;;;12.40;11.70;;;17.30;92.50;;;;;;4858428;29;20453;-82
2023/04/07 14:54:41;;;;;;;14.27;13.37;;;17.30;92.00;;;;;;4858441;29;21046;-80
2023/04/07 14:57:07;;;;;;;12.50;11.97;;;17.50;91.50;;;;;;4857526;29;20831;-80
2023/04/07 14:59:34;;;;;;;14.60;13.90;;;17.00;91.40;;;;;;4857272;29;20461;-81
2023/04/07 15:02:01;;;;;;;12.20;11.50;;;17.10;91.20;;;;;;4857394;29;20510;-81
2023/04/07 15:04:28;;;;;;;13.60;12.90;;;17.20;91.40;;;;;;4857999;29;20512;-80
2023/04/07 15:06:56;;;;;;;12.60;11.70;;;17.30;91.40;;;;;;4860841;29;20489;-81
2023/04/07 15:09:22;;;;;;;11.80;11.10;;;17.30;91.10;;;;;;4863514;29;20465;-81
2023/04/07 15:11:49;;;;;;;12.37;11.57;;;16.80;91.30;;;;;;4862919;29;20813;-80